sensor_id;sensor_type;location;lat;lon;timestamp;pressure;altitude;pressure_sealevel;temperature;humidity
61908;BME280;47864;52.526;19.672;2024-01-30T00:01:41;149249.78;;;0.91;100.00
61908;BME280;47864;52.526;19.672;2024-01-30T00:03:43;149219.69;;;0.79;100.00
61908;BME280;47864;52.526;19.672;2024-01-30T00:05:44;149257.31;;;0.94;100.00
61908;BME280;47864;52.526;19.672;2024-01-30T00:07:46;149209.66;;;0.75;100.00
61908;BME280;47864;52.526;19.672;2024-01-30T00:09:48;149294.94;;;1.09;100.00
61908;BME280;47864;52.526;19.672;2024-01-30T00:11:50;149190.84;;;0.67;100.00
61908;BME280;47864;52.526;19.672;2024-01-30T00:13:52;149242.28;;;0.88;100.00
61908;BME280;47864;52.526;19.672;2024-01-30T00:15:54;149154.47;;;0.53;100.00
61908;BME280;47864;52.526;19.672;2024-01-30T00:17:55;149115.63;;;0.37;100.00
61908;BME280;47864;52.526;19.672;2024-01-30T00:19:57;149086.75;;;0.25;100.00
61908;BME280;47864;52.526;19.672;2024-01-30T00:21:59;149119.38;;;0.38;100.00
61908;BME280;47864;52.526;19.672;2024-01-30T00:24:01;149031.63;;;0.03;100.00
61908;BME280;47864;52.526;19.672;2024-01-30T00:26:02;149090.53;;;0.27;100.00
61908;BME280;47864;52.526;19.672;2024-01-30T00:28:04;149131.91;;;0.44;100.00
61908;BME280;47864;52.526;19.672;2024-01-30T00:30:07;149164.53;;;0.57;100.00
61908;BME280;47864;52.526;19.672;2024-01-30T00:32:08;149337.63;;;1.27;100.00
61908;BME280;47864;52.526;19.672;2024-01-30T00:34:10;149321.31;;;1.20;100.00
61908;BME280;47864;52.526;19.672;2024-01-30T00:36:13;149114.38;;;0.36;100.00
61908;BME280;47864;52.526;19.672;2024-01-30T00:38:15;149279.91;;;1.03;100.00
61908;BME280;47864;52.526;19.672;2024-01-30T00:40:17;149130.66;;;0.43;100.00
61908;BME280;47864;52.526;19.672;2024-01-30T00:42:19;149279.91;;;1.03;100.00
61908;BME280;47864;52.526;19.672;2024-01-30T00:44:20;149355.16;;;1.34;100.00
61908;BME280;47864;52.526;19.672;2024-01-30T00:46:22;149244.81;;;0.89;100.00
61908;BME280;47864;52.526;19.672;2024-01-30T00:48:24;149286.19;;;1.06;100.00
61908;BME280;47864;52.526;19.672;2024-01-30T00:50:25;149192.09;;;0.68;100.00
61908;BME280;47864;52.526;19.672;2024-01-30T00:52:27;149160.78;;;0.55;100.00
61908;BME280;47864;52.526;19.672;2024-01-30T00:54:29;149185.84;;;0.65;100.00
61908;BME280;47864;52.526;19.672;2024-01-30T00:56:30;149205.94;;;0.73;100.00
61908;BME280;47864;52.526;19.672;2024-01-30T00:58:32;149283.69;;;1.05;100.00
61908;BME280;47864;52.526;19.672;2024-01-30T01:00:34;149232.22;;;0.84;100.00
61908;BME280;47864;52.526;19.672;2024-01-30T01:02:35;149111.84;;;0.35;100.00
61908;BME280;47864;52.526;19.672;2024-01-30T01:04:37;149157.00;;;0.54;100.00
61908;BME280;47864;52.526;19.672;2024-01-30T01:06:40;149337.63;;;1.27;100.00
61908;BME280;47864;52.526;19.672;2024-01-30T01:08:47;149098.06;;;0.30;100.00
61908;BME280;47864;52.526;19.672;2024-01-30T01:10:49;149172.03;;;0.60;100.00
61908;BME280;47864;52.526;19.672;2024-01-30T01:12:50;149197.13;;;0.70;100.00
61908;BME280;47864;52.526;19.672;2024-01-30T01:14:52;149016.59;;;-0.03;100.00
61908;BME280;47864;52.526;19.672;2024-01-30T01:16:54;149193.34;;;0.68;100.00
61908;BME280;47864;52.526;19.672;2024-01-30T01:18:56;149193.34;;;0.68;100.00
61908;BME280;47864;52.526;19.672;2024-01-30T01:20:58;149202.16;;;0.72;100.00
61908;BME280;47864;52.526;19.672;2024-01-30T01:22:59;149239.78;;;0.87;100.00
61908;BME280;47864;52.526;19.672;2024-01-30T01:25:01;149197.13;;;0.70;100.00
61908;BME280;47864;52.526;19.672;2024-01-30T01:27:03;149110.59;;;0.35;100.00
61908;BME280;47864;52.526;19.672;2024-01-30T01:29:06;149305.00;;;1.13;100.00
61908;BME280;47864;52.526;19.672;2024-01-30T01:31:07;149217.19;;;0.78;100.00
61908;BME280;47864;52.526;19.672;2024-01-30T01:33:09;149154.47;;;0.53;100.00
61908;BME280;47864;52.526;19.672;2024-01-30T01:35:11;149151.97;;;0.52;100.00
61908;BME280;47864;52.526;19.672;2024-01-30T01:37:13;149134.41;;;0.45;100.00
61908;BME280;47864;52.526;19.672;2024-01-30T01:39:15;149274.88;;;1.01;100.00
61908;BME280;47864;52.526;19.672;2024-01-30T01:41:17;149170.78;;;0.59;100.00
61908;BME280;47864;52.526;19.672;2024-01-30T01:43:19;149272.38;;;1.00;100.00
61908;BME280;47864;52.526;19.672;2024-01-30T01:45:21;149126.88;;;0.42;100.00
61908;BME280;47864;52.526;19.672;2024-01-30T01:47:23;149239.78;;;0.87;100.00
61908;BME280;47864;52.526;19.672;2024-01-30T01:49:25;149249.78;;;0.91;100.00
61908;BME280;47864;52.526;19.672;2024-01-30T01:51:30;149224.72;;;0.81;100.00
61908;BME280;47864;52.526;19.672;2024-01-30T01:53:32;149257.31;;;0.94;100.00
61908;BME280;47864;52.526;19.672;2024-01-30T01:55:35;149158.25;;;0.54;100.00
61908;BME280;47864;52.526;19.672;2024-01-30T01:57:37;149224.72;;;0.81;100.00
61908;BME280;47864;52.526;19.672;2024-01-30T01:59:40;149374.00;;;1.41;100.00
61908;BME280;47864;52.526;19.672;2024-01-30T02:01:42;149098.06;;;0.30;100.00
61908;BME280;47864;52.526;19.672;2024-01-30T02:03:45;149266.13;;;0.98;100.00
61908;BME280;47864;52.526;19.672;2024-01-30T02:05:47;149228.47;;;0.83;100.00
61908;BME280;47864;52.526;19.672;2024-01-30T02:07:50;149254.81;;;0.93;100.00
61908;BME280;47864;52.526;19.672;2024-01-30T02:09:51;149202.16;;;0.72;100.00
61908;BME280;47864;52.526;19.672;2024-01-30T02:11:53;149073.00;;;0.20;100.00
61908;BME280;47864;52.526;19.672;2024-01-30T02:13:55;149129.41;;;0.43;100.00
61908;BME280;47864;52.526;19.672;2024-01-30T02:15:57;149207.19;;;0.74;100.00
61908;BME280;47864;52.526;19.672;2024-01-30T02:17:59;149101.84;;;0.31;100.00
61908;BME280;47864;52.526;19.672;2024-01-30T02:20:01;149136.94;;;0.46;100.00
61908;BME280;47864;52.526;19.672;2024-01-30T02:22:03;149162.03;;;0.56;100.00
61908;BME280;47864;52.526;19.672;2024-01-30T02:24:06;149133.16;;;0.44;100.00
61908;BME280;47864;52.526;19.672;2024-01-30T02:26:07;149110.59;;;0.35;100.00
61908;BME280;47864;52.526;19.672;2024-01-30T02:28:13;149182.09;;;0.64;100.00
61908;BME280;47864;52.526;19.672;2024-01-30T02:30:15;149085.50;;;0.25;100.00
61908;BME280;47864;52.526;19.672;2024-01-30T02:32:16;149209.66;;;0.75;100.00
61908;BME280;47864;52.526;19.672;2024-01-30T02:34:18;149236.00;;;0.86;100.00
61908;BME280;47864;52.526;19.672;2024-01-30T02:36:20;149212.16;;;0.76;100.00
61908;BME280;47864;52.526;19.672;2024-01-30T02:38:22;149185.84;;;0.65;100.00
61908;BME280;47864;52.526;19.672;2024-01-30T02:40:24;149363.97;;;1.37;100.00
61908;BME280;47864;52.526;19.672;2024-01-30T02:42:25;149272.38;;;1.00;100.00
61908;BME280;47864;52.526;19.672;2024-01-30T02:44:27;149213.41;;;0.76;100.00
61908;BME280;47864;52.526;19.672;2024-01-30T02:46:29;149257.31;;;0.94;100.00
61908;BME280;47864;52.526;19.672;2024-01-30T02:48:31;149259.84;;;0.95;100.00
61908;BME280;47864;52.526;19.672;2024-01-30T02:50:32;149226.00;;;0.82;100.00
61908;BME280;47864;52.526;19.672;2024-01-30T02:52:34;149238.50;;;0.87;100.00
61908;BME280;47864;52.526;19.672;2024-01-30T02:54:36;149203.41;;;0.72;100.00
61908;BME280;47864;52.526;19.672;2024-01-30T02:56:37;149205.94;;;0.73;100.00
61908;BME280;47864;52.526;19.672;2024-01-30T02:58:39;149284.94;;;1.05;100.00
61908;BME280;47864;52.526;19.672;2024-01-30T03:00:41;149212.16;;;0.76;100.00
61908;BME280;47864;52.526;19.672;2024-01-30T03:02:43;149149.47;;;0.51;100.00
61908;BME280;47864;52.526;19.672;2024-01-30T03:04:45;149267.38;;;0.98;100.00
61908;BME280;47864;52.526;19.672;2024-01-30T03:06:47;149289.91;;;1.07;100.00
61908;BME280;47864;52.526;19.672;2024-01-30T03:08:49;149030.38;;;0.03;100.00
61908;BME280;47864;52.526;19.672;2024-01-30T03:10:50;149044.19;;;0.08;100.00
61908;BME280;47864;52.526;19.672;2024-01-30T03:12:52;149079.28;;;0.22;100.00
61908;BME280;47864;52.526;19.672;2024-01-30T03:14:54;148891.28;;;-0.54;100.00
61908;BME280;47864;52.526;19.672;2024-01-30T03:16:56;149029.09;;;0.02;100.00
61908;BME280;47864;52.526;19.672;2024-01-30T03:18:57;148963.94;;;-0.24;100.00
61908;BME280;47864;52.526;19.672;2024-01-30T03:20:59;149002.81;;;-0.09;100.00
61908;BME280;47864;52.526;19.672;2024-01-30T03:23:01;148989.00;;;-0.14;100.00
61908;BME280;47864;52.526;19.672;2024-01-30T03:25:03;149046.66;;;0.09;100.00
61908;BME280;47864;52.526;19.672;2024-01-30T03:27:04;148856.22;;;-0.68;100.00
61908;BME280;47864;52.526;19.672;2024-01-30T03:29:06;148920.13;;;-0.42;100.00
61908;BME280;47864;52.526;19.672;2024-01-30T03:31:08;149055.44;;;0.13;100.00
61908;BME280;47864;52.526;19.672;2024-01-30T03:33:10;148973.97;;;-0.20;100.00
61908;BME280;47864;52.526;19.672;2024-01-30T03:35:11;149025.34;;;0.00;100.00
61908;BME280;47864;52.526;19.672;2024-01-30T03:37:13;149036.66;;;0.05;100.00
61908;BME280;47864;52.526;19.672;2024-01-30T03:39:15;149040.41;;;0.07;100.00
61908;BME280;47864;52.526;19.672;2024-01-30T03:41:16;149099.34;;;0.30;100.00
61908;BME280;47864;52.526;19.672;2024-01-30T03:43:18;149157.00;;;0.54;100.00
61908;BME280;47864;52.526;19.672;2024-01-30T03:45:20;149070.47;;;0.19;100.00
61908;BME280;47864;52.526;19.672;2024-01-30T03:47:22;149066.72;;;0.17;100.00
61908;BME280;47864;52.526;19.672;2024-01-30T03:49:23;149073.00;;;0.20;100.00
61908;BME280;47864;52.526;19.672;2024-01-30T03:51:25;149106.81;;;0.33;100.00
61908;BME280;47864;52.526;19.672;2024-01-30T03:53:27;149154.47;;;0.53;100.00
61908;BME280;47864;52.526;19.672;2024-01-30T03:55:29;149105.63;;;0.33;100.00
61908;BME280;47864;52.526;19.672;2024-01-30T03:57:30;149040.41;;;0.07;100.00
61908;BME280;47864;52.526;19.672;2024-01-30T03:59:32;149194.59;;;0.69;100.00
61908;BME280;47864;52.526;19.672;2024-01-30T04:01:34;149139.44;;;0.47;100.00
61908;BME280;47864;52.526;19.672;2024-01-30T04:03:35;149157.00;;;0.54;100.00
61908;BME280;47864;52.526;19.672;2024-01-30T04:05:37;149120.66;;;0.39;100.00
61908;BME280;47864;52.526;19.672;2024-01-30T04:07:42;149121.91;;;0.40;100.00
61908;BME280;47864;52.526;19.672;2024-01-30T04:09:44;149131.91;;;0.44;100.00
61908;BME280;47864;52.526;19.672;2024-01-30T04:11:45;149101.84;;;0.31;100.00
61908;BME280;47864;52.526;19.672;2024-01-30T04:13:47;149106.81;;;0.33;100.00
61908;BME280;47864;52.526;19.672;2024-01-30T04:15:48;149080.53;;;0.23;100.00
61908;BME280;47864;52.526;19.672;2024-01-30T04:17:50;149104.34;;;0.32;100.00
61908;BME280;47864;52.526;19.672;2024-01-30T04:19:52;149042.94;;;0.08;100.00
61908;BME280;47864;52.526;19.672;2024-01-30T04:21:54;149054.19;;;0.12;100.00
61908;BME280;47864;52.526;19.672;2024-01-30T04:23:55;149030.38;;;0.03;100.00
61908;BME280;47864;52.526;19.672;2024-01-30T04:25:59;148976.50;;;-0.19;100.00
61908;BME280;47864;52.526;19.672;2024-01-30T04:28:00;149095.56;;;0.29;100.00
61908;BME280;47864;52.526;19.672;2024-01-30T04:30:02;149051.69;;;0.11;100.00
61908;BME280;47864;52.526;19.672;2024-01-30T04:32:04;149105.63;;;0.33;100.00
61908;BME280;47864;52.526;19.672;2024-01-30T04:34:06;148907.56;;;-0.47;100.00
61908;BME280;47864;52.526;19.672;2024-01-30T04:36:08;149103.09;;;0.32;100.00
61908;BME280;47864;52.526;19.672;2024-01-30T04:38:10;149083.03;;;0.24;100.00
61908;BME280;47864;52.526;19.672;2024-01-30T04:40:12;149128.13;;;0.42;100.00
61908;BME280;47864;52.526;19.672;2024-01-30T04:42:14;149106.81;;;0.33;100.00
61908;BME280;47864;52.526;19.672;2024-01-30T04:44:15;149042.94;;;0.08;100.00
61908;BME280;47864;52.526;19.672;2024-01-30T04:46:17;149078.00;;;0.22;100.00
61908;BME280;47864;52.526;19.672;2024-01-30T04:48:19;149080.53;;;0.23;100.00
61908;BME280;47864;52.526;19.672;2024-01-30T04:50:21;149051.69;;;0.11;100.00
61908;BME280;47864;52.526;19.672;2024-01-30T04:52:22;149056.69;;;0.13;100.00
61908;BME280;47864;52.526;19.672;2024-01-30T04:54:24;149104.34;;;0.32;100.00
61908;BME280;47864;52.526;19.672;2024-01-30T04:56:26;149128.13;;;0.42;100.00
61908;BME280;47864;52.526;19.672;2024-01-30T04:58:27;149045.41;;;0.09;100.00
61908;BME280;47864;52.526;19.672;2024-01-30T05:00:29;149124.41;;;0.41;100.00
61908;BME280;47864;52.526;19.672;2024-01-30T05:02:31;149037.91;;;0.06;100.00
61908;BME280;47864;52.526;19.672;2024-01-30T05:04:32;149035.38;;;0.05;100.00
61908;BME280;47864;52.526;19.672;2024-01-30T05:06:34;149114.38;;;0.36;100.00
61908;BME280;47864;52.526;19.672;2024-01-30T05:08:36;149120.66;;;0.39;100.00
61908;BME280;47864;52.526;19.672;2024-01-30T05:10:37;149091.78;;;0.27;100.00
61908;BME280;47864;52.526;19.672;2024-01-30T05:12:40;149094.31;;;0.28;100.00
61908;BME280;47864;52.526;19.672;2024-01-30T05:14:41;148981.53;;;-0.17;100.00
61908;BME280;47864;52.526;19.672;2024-01-30T05:16:43;149106.81;;;0.33;100.00
61908;BME280;47864;52.526;19.672;2024-01-30T05:18:45;149009.06;;;-0.06;100.00
61908;BME280;47864;52.526;19.672;2024-01-30T05:20:47;148891.28;;;-0.54;100.00
61908;BME280;47864;52.526;19.672;2024-01-30T05:22:48;149094.31;;;0.28;100.00
61908;BME280;47864;52.526;19.672;2024-01-30T05:24:50;149025.34;;;0.00;100.00
61908;BME280;47864;52.526;19.672;2024-01-30T05:26:52;149052.94;;;0.12;100.00
61908;BME280;47864;52.526;19.672;2024-01-30T05:28:53;148983.97;;;-0.16;100.00
61908;BME280;47864;52.526;19.672;2024-01-30T05:30:56;149024.13;;;0.00;100.00
61908;BME280;47864;52.526;19.672;2024-01-30T05:32:58;149036.66;;;0.05;100.00
61908;BME280;47864;52.526;19.672;2024-01-30T05:35:00;149016.59;;;-0.03;100.00
61908;BME280;47864;52.526;19.672;2024-01-30T05:37:01;149044.19;;;0.08;100.00
61908;BME280;47864;52.526;19.672;2024-01-30T05:39:03;149144.47;;;0.49;100.00
61908;BME280;47864;52.526;19.672;2024-01-30T05:41:09;149149.47;;;0.51;100.00
61908;BME280;47864;52.526;19.672;2024-01-30T05:43:11;149200.91;;;0.71;100.00
61908;BME280;47864;52.526;19.672;2024-01-30T05:45:13;149217.19;;;0.78;100.00
61908;BME280;47864;52.526;19.672;2024-01-30T05:47:14;149200.91;;;0.71;100.00
61908;BME280;47864;52.526;19.672;2024-01-30T05:49:29;149039.16;;;0.06;100.00
61908;BME280;47864;52.526;19.672;2024-01-30T05:51:34;148992.78;;;-0.13;100.00
61908;BME280;47864;52.526;19.672;2024-01-30T05:53:36;149183.34;;;0.64;100.00
61908;BME280;47864;52.526;19.672;2024-01-30T05:55:37;149207.19;;;0.74;100.00
61908;BME280;47864;52.526;19.672;2024-01-30T05:57:39;149096.81;;;0.29;100.00
61908;BME280;47864;52.526;19.672;2024-01-30T05:59:41;149148.19;;;0.50;100.00
61908;BME280;47864;52.526;19.672;2024-01-30T06:01:46;149229.72;;;0.83;100.00
61908;BME280;47864;52.526;19.672;2024-01-30T06:03:48;149015.34;;;-0.04;100.00
61908;BME280;47864;52.526;19.672;2024-01-30T06:05:50;149204.66;;;0.73;100.00
61908;BME280;47864;52.526;19.672;2024-01-30T06:07:52;149000.31;;;-0.10;100.00
61908;BME280;47864;52.526;19.672;2024-01-30T06:09:53;149083.03;;;0.24;100.00
61908;BME280;47864;52.526;19.672;2024-01-30T06:11:55;149172.03;;;0.60;100.00
61908;BME280;47864;52.526;19.672;2024-01-30T06:13:57;149177.06;;;0.62;100.00
61908;BME280;47864;52.526;19.672;2024-01-30T06:15:59;149184.59;;;0.65;100.00
61908;BME280;47864;52.526;19.672;2024-01-30T06:18:00;149189.59;;;0.67;100.00
61908;BME280;47864;52.526;19.672;2024-01-30T06:20:02;149170.78;;;0.59;100.00
61908;BME280;47864;52.526;19.672;2024-01-30T06:22:05;149204.66;;;0.73;100.00
61908;BME280;47864;52.526;19.672;2024-01-30T06:24:07;149158.25;;;0.54;100.00
61908;BME280;47864;52.526;19.672;2024-01-30T06:26:08;149192.09;;;0.68;100.00
61908;BME280;47864;52.526;19.672;2024-01-30T06:28:10;149138.19;;;0.46;100.00
61908;BME280;47864;52.526;19.672;2024-01-30T06:30:12;149124.41;;;0.41;100.00
61908;BME280;47864;52.526;19.672;2024-01-30T06:32:14;149144.47;;;0.49;100.00
61908;BME280;47864;52.526;19.672;2024-01-30T06:34:16;149237.25;;;0.86;100.00
61908;BME280;47864;52.526;19.672;2024-01-30T06:36:18;149253.56;;;0.93;100.00
61908;BME280;47864;52.526;19.672;2024-01-30T06:38:19;149215.94;;;0.77;100.00
61908;BME280;47864;52.526;19.672;2024-01-30T06:40:21;149229.72;;;0.83;100.00
61908;BME280;47864;52.526;19.672;2024-01-30T06:42:22;149194.59;;;0.69;100.00
61908;BME280;47864;52.526;19.672;2024-01-30T06:44:24;149239.78;;;0.87;100.00
61908;BME280;47864;52.526;19.672;2024-01-30T06:46:26;149315.03;;;1.18;100.00
61908;BME280;47864;52.526;19.672;2024-01-30T06:48:28;149333.84;;;1.25;100.00
61908;BME280;47864;52.526;19.672;2024-01-30T06:50:29;149305.00;;;1.13;100.00
61908;BME280;47864;52.526;19.672;2024-01-30T06:52:31;149315.03;;;1.18;100.00
61908;BME280;47864;52.526;19.672;2024-01-30T06:54:33;149291.19;;;1.08;100.00
61908;BME280;47864;52.526;19.672;2024-01-30T06:56:35;149153.22;;;0.52;100.00
61908;BME280;47864;52.526;19.672;2024-01-30T06:58:37;149358.94;;;1.35;100.00
61908;BME280;47864;52.526;19.672;2024-01-30T07:00:38;149412.88;;;1.57;100.00
61908;BME280;47864;52.526;19.672;2024-01-30T07:02:40;149402.88;;;1.53;100.00
61908;BME280;47864;52.526;19.672;2024-01-30T07:04:42;149351.41;;;1.32;100.00
61908;BME280;47864;52.526;19.672;2024-01-30T07:06:47;149441.78;;;1.69;100.00
61908;BME280;47864;52.526;19.672;2024-01-30T07:08:49;149401.63;;;1.52;100.00
61908;BME280;47864;52.526;19.672;2024-01-30T07:10:51;149455.56;;;1.74;100.00
61908;BME280;47864;52.526;19.672;2024-01-30T07:12:53;149468.16;;;1.79;100.00
61908;BME280;47864;52.526;19.672;2024-01-30T07:14:55;149538.44;;;2.08;100.00
61908;BME280;47864;52.526;19.672;2024-01-30T07:16:56;149470.66;;;1.80;100.00
61908;BME280;47864;52.526;19.672;2024-01-30T07:18:58;149566.06;;;2.19;100.00
61908;BME280;47864;52.526;19.672;2024-01-30T07:21:00;149539.69;;;2.08;100.00
61908;BME280;47864;52.526;19.672;2024-01-30T07:23:05;149454.31;;;1.74;100.00
61908;BME280;47864;52.526;19.672;2024-01-30T07:25:08;149591.19;;;2.29;100.00
61908;BME280;47864;52.526;19.672;2024-01-30T07:27:09;149638.88;;;2.48;100.00
61908;BME280;47864;52.526;19.672;2024-01-30T07:29:11;149643.91;;;2.50;100.00
61908;BME280;47864;52.526;19.672;2024-01-30T07:31:13;149734.38;;;2.87;100.00
61908;BME280;47864;52.526;19.672;2024-01-30T07:33:14;149697.91;;;2.72;100.00
61908;BME280;47864;52.526;19.672;2024-01-30T07:35:17;149657.72;;;2.56;100.00
61908;BME280;47864;52.526;19.672;2024-01-30T07:37:18;149788.41;;;3.09;100.00
61908;BME280;47864;52.526;19.672;2024-01-30T07:39:20;149794.69;;;3.11;100.00
61908;BME280;47864;52.526;19.672;2024-01-30T07:41:22;149652.75;;;2.54;100.00
61908;BME280;47864;52.526;19.672;2024-01-30T07:43:23;149677.81;;;2.64;100.00
61908;BME280;47864;52.526;19.672;2024-01-30T07:45:25;149713.03;;;2.78;100.00
61908;BME280;47864;52.526;19.672;2024-01-30T07:47:27;149651.47;;;2.53;100.00
61908;BME280;47864;52.526;19.672;2024-01-30T07:49:29;149686.63;;;2.67;100.00
61908;BME280;47864;52.526;19.672;2024-01-30T07:51:31;149728.09;;;2.84;100.00
61908;BME280;47864;52.526;19.672;2024-01-30T07:53:33;149899.03;;;3.53;100.00
61908;BME280;47864;52.526;19.672;2024-01-30T07:55:34;149782.09;;;3.06;100.00
61908;BME280;47864;52.526;19.672;2024-01-30T07:57:38;149672.84;;;2.62;100.00
61908;BME280;47864;52.526;19.672;2024-01-30T07:59:44;149862.53;;;3.38;100.00
61908;BME280;47864;52.526;19.672;2024-01-30T08:01:45;149823.56;;;3.23;100.00
61908;BME280;47864;52.526;19.672;2024-01-30T08:03:47;149870.09;;;3.41;100.00
61908;BME280;47864;52.526;19.672;2024-01-30T08:05:49;149955.59;;;3.76;100.00
61908;BME280;47864;52.526;19.672;2024-01-30T08:07:51;149892.72;;;3.51;100.00
61908;BME280;47864;52.526;19.672;2024-01-30T08:09:53;149934.22;;;3.67;100.00
61908;BME280;47864;52.526;19.672;2024-01-30T08:11:55;149917.88;;;3.61;100.00
61908;BME280;47864;52.526;19.672;2024-01-30T08:13:56;149998.34;;;3.93;100.00
61908;BME280;47864;52.526;19.672;2024-01-30T08:15:58;150064.97;;;4.20;100.00
61908;BME280;47864;52.526;19.672;2024-01-30T08:18:00;150088.88;;;4.30;100.00
61908;BME280;47864;52.526;19.672;2024-01-30T08:20:01;150086.34;;;4.29;100.00
61908;BME280;47864;52.526;19.672;2024-01-30T08:22:03;150129.13;;;4.46;100.00
61908;BME280;47864;52.526;19.672;2024-01-30T08:24:06;150112.78;;;4.39;100.00
61908;BME280;47864;52.526;19.672;2024-01-30T08:26:08;150110.25;;;4.38;100.00
61908;BME280;47864;52.526;19.672;2024-01-30T08:28:09;150194.56;;;4.72;100.00
61908;BME280;47864;52.526;19.672;2024-01-30T08:30:11;150095.16;;;4.32;100.00
61908;BME280;47864;52.526;19.672;2024-01-30T08:32:13;150018.47;;;4.01;100.00
61908;BME280;47864;52.526;19.672;2024-01-30T08:34:15;150248.69;;;4.94;100.00
61908;BME280;47864;52.526;19.672;2024-01-30T08:36:17;150321.69;;;5.23;100.00
61908;BME280;47864;52.526;19.672;2024-01-30T08:38:19;150300.28;;;5.15;100.00
61908;BME280;47864;52.526;19.672;2024-01-30T08:40:21;150295.22;;;5.13;100.00
61908;BME280;47864;52.526;19.672;2024-01-30T08:42:22;150302.78;;;5.16;100.00
61908;BME280;47864;52.526;19.672;2024-01-30T08:44:24;150252.44;;;4.95;100.00
61908;BME280;47864;52.526;19.672;2024-01-30T08:46:26;150445.06;;;5.73;100.00
61908;BME280;47864;52.526;19.672;2024-01-30T08:48:27;150436.22;;;5.69;100.00
61908;BME280;47864;52.526;19.672;2024-01-30T08:50:29;150463.94;;;5.81;100.00
61908;BME280;47864;52.526;19.672;2024-01-30T08:52:31;150436.22;;;5.69;100.00
61908;BME280;47864;52.526;19.672;2024-01-30T08:54:33;150310.38;;;5.19;100.00
61908;BME280;47864;52.526;19.672;2024-01-30T08:56:34;150356.91;;;5.38;100.00
61908;BME280;47864;52.526;19.672;2024-01-30T08:58:36;150510.63;;;5.99;100.00
61908;BME280;47864;52.526;19.672;2024-01-30T09:00:38;150525.72;;;6.05;100.00
61908;BME280;47864;52.526;19.672;2024-01-30T09:02:39;150510.63;;;5.99;100.00
61908;BME280;47864;52.526;19.672;2024-01-30T09:04:41;150528.25;;;6.06;100.00
61908;BME280;47864;52.526;19.672;2024-01-30T09:06:43;150484.16;;;5.89;100.00
61908;BME280;47864;52.526;19.672;2024-01-30T09:08:45;150545.88;;;6.14;100.00
61908;BME280;47864;52.526;19.672;2024-01-30T09:10:46;150467.75;;;5.82;100.00
61908;BME280;47864;52.526;19.672;2024-01-30T09:12:48;150518.13;;;6.02;100.00
61908;BME280;47864;52.526;19.672;2024-01-30T09:14:50;150567.28;;;6.22;100.00
61908;BME280;47864;52.526;19.672;2024-01-30T09:16:51;150718.53;;;6.83;100.00
61908;BME280;47864;52.526;19.672;2024-01-30T09:18:53;150733.63;;;6.89;100.00
61908;BME280;47864;52.526;19.672;2024-01-30T09:20:54;150592.50;;;6.32;97.82
61908;BME280;47864;52.526;19.672;2024-01-30T09:22:56;150686.97;;;6.70;100.00
61908;BME280;47864;52.526;19.672;2024-01-30T09:24:58;150689.50;;;6.71;95.50
61908;BME280;47864;52.526;19.672;2024-01-30T09:27:00;150597.50;;;6.34;94.23
61908;BME280;47864;52.526;19.672;2024-01-30T09:29:01;150801.72;;;7.16;92.58
61908;BME280;47864;52.526;19.672;2024-01-30T09:31:03;150829.41;;;7.28;94.06
61908;BME280;47864;52.526;19.672;2024-01-30T09:33:06;150757.59;;;6.99;91.57
61908;BME280;47864;52.526;19.672;2024-01-30T09:35:08;150718.53;;;6.83;93.00
61908;BME280;47864;52.526;19.672;2024-01-30T09:37:10;150762.59;;;7.01;95.90
61908;BME280;47864;52.526;19.672;2024-01-30T09:39:12;150809.25;;;7.19;91.42
61908;BME280;47864;52.526;19.672;2024-01-30T09:41:15;150839.53;;;7.32;92.04
61908;BME280;47864;52.526;19.672;2024-01-30T09:43:21;150837.00;;;7.31;88.17
61908;BME280;47864;52.526;19.672;2024-01-30T09:45:25;150824.38;;;7.25;89.71
61908;BME280;47864;52.526;19.672;2024-01-30T09:47:27;150780.28;;;7.08;88.98
61908;BME280;47864;52.526;19.672;2024-01-30T09:49:31;150818.09;;;7.23;86.39
61908;BME280;47864;52.526;19.672;2024-01-30T09:51:34;150859.72;;;7.40;87.70
61908;BME280;47864;52.526;19.672;2024-01-30T09:53:36;150805.47;;;7.18;89.08
61908;BME280;47864;52.526;19.672;2024-01-30T09:55:39;150892.47;;;7.53;88.35
61908;BME280;47864;52.526;19.672;2024-01-30T09:57:44;150858.44;;;7.39;86.37
61908;BME280;47864;52.526;19.672;2024-01-30T09:59:45;150843.28;;;7.33;85.44
61908;BME280;47864;52.526;19.672;2024-01-30T10:01:47;150900.06;;;7.56;85.22
61908;BME280;47864;52.526;19.672;2024-01-30T10:03:50;150831.94;;;7.29;85.93
61908;BME280;47864;52.526;19.672;2024-01-30T10:05:52;151004.75;;;7.98;84.71
61908;BME280;47864;52.526;19.672;2024-01-30T10:07:54;150960.59;;;7.80;83.15
61908;BME280;47864;52.526;19.672;2024-01-30T10:09:56;151008.50;;;7.99;83.12
61908;BME280;47864;52.526;19.672;2024-01-30T10:11:58;151026.19;;;8.07;82.46
61908;BME280;47864;52.526;19.672;2024-01-30T10:14:00;150984.56;;;7.90;85.09
61908;BME280;47864;52.526;19.672;2024-01-30T10:16:02;151096.88;;;8.35;84.90
61908;BME280;47864;52.526;19.672;2024-01-30T10:18:04;151012.28;;;8.01;82.60
61908;BME280;47864;52.526;19.672;2024-01-30T10:20:06;151158.72;;;8.60;82.12
61908;BME280;47864;52.526;19.672;2024-01-30T10:22:09;151047.66;;;8.15;80.88
61908;BME280;47864;52.526;19.672;2024-01-30T10:24:11;151225.63;;;8.87;80.34
61908;BME280;47864;52.526;19.672;2024-01-30T10:26:12;151117.06;;;8.43;79.36
61908;BME280;47864;52.526;19.672;2024-01-30T10:28:14;151210.50;;;8.81;78.58
61908;BME280;47864;52.526;19.672;2024-01-30T10:30:16;151060.25;;;8.20;76.59